Terminal Aerodrome Forecast
Issued by NWS

Home | Current Version | Previous Version | Text Only | Print | Product List | Glossary On
Versions: 1 2 3 4 5 6 7 8 9 10 11 12 13 14 15 16 17 18 19 20 21 22 23 24 25 26 27 28 29 30
000
FTUS46 KOTX 012329
TAFPUW
TAF
KPUW 012329Z 0200/0224 25014G24KT P6SM VCSH BKN060 BKN100
     FM020200 25012G18KT P6SM SCT070 SCT120
     FM020700 24010KT P6SM SCT120
     FM021900 23012KT P6SM SCT060=

USA.gov is the U.S. government's official web portal to all federal, state and local government web resources and services.